Time;durP1;ratioP1;P1;durP2;ratioP2;P2;SDS_P1;SDS_P2;PMS_P1;PMS_P2;Temp;Humidity;BMP_temperature;BMP_pressure;BME280_temperature;BME280_humidity;BME280_pressure;Samples;Min_cycle;Max_cycle;Signal;HPM_P1;HPM_P2
2023/01/19 00:00:26;;;;;;;18.60;13.53;;;2.00;99.90;;;;;;4992891;28;20575;-68
2023/01/19 00:02:57;;;;;;;16.40;13.00;;;2.00;99.90;;;;;;4996887;28;20502;-68
2023/01/19 00:05:26;;;;;;;15.07;12.97;;;2.00;99.90;;;;;;4989005;28;20472;-67
2023/01/19 00:07:54;;;;;;;16.00;13.73;;;2.00;99.90;;;;;;4991416;28;20496;-68
2023/01/19 00:10:25;;;;;;;14.53;13.03;;;2.00;99.90;;;;;;4993588;28;20473;-68
2023/01/19 00:12:55;;;;;;;18.73;13.37;;;2.00;99.90;;;;;;4990614;28;20526;-68
2023/01/19 00:15:38;;;;;;;16.70;13.13;;;2.10;99.90;;;;;;4994070;28;20869;-68
2023/01/19 00:18:07;;;;;;;15.87;13.37;;;2.00;99.90;;;;;;4995618;28;20469;-68
2023/01/19 00:20:45;;;;;;;13.87;12.27;;;2.10;99.90;;;;;;4997492;28;20573;-68
2023/01/19 00:23:15;;;;;;;19.40;14.20;;;2.10;99.90;;;;;;4999613;28;20498;-68
2023/01/19 00:25:48;;;;;;;17.23;14.03;;;2.10;99.90;;;;;;5000647;28;20834;-68
2023/01/19 00:28:26;;;;;;;16.17;11.70;;;2.10;99.90;;;;;;4998796;28;20527;-68
2023/01/19 00:30:55;;;;;;;18.53;13.90;;;2.10;99.90;;;;;;4998725;28;20546;-68
2023/01/19 00:33:26;;;;;;;14.70;13.17;;;2.20;99.90;;;;;;4996168;28;20488;-68
2023/01/19 00:36:00;;;;;;;15.90;13.50;;;2.10;99.90;;;;;;4996925;28;20500;-68
2023/01/19 00:38:32;;;;;;;16.53;13.70;;;2.10;99.90;;;;;;4996115;28;20469;-68
2023/01/19 00:41:02;;;;;;;15.00;12.70;;;2.20;99.90;;;;;;4997238;28;20524;-69
2023/01/19 00:43:30;;;;;;;15.00;13.40;;;2.20;99.90;;;;;;4998609;28;20488;-68
2023/01/19 00:46:17;;;;;;;17.83;14.37;;;2.20;99.90;;;;;;4989472;28;20484;-68
2023/01/19 00:48:45;;;;;;;15.33;13.27;;;2.20;99.90;;;;;;4997797;28;20493;-68
2023/01/19 00:51:28;;;;;;;17.13;13.07;;;2.20;99.90;;;;;;4997955;28;20468;-68
2023/01/19 00:53:58;;;;;;;16.03;12.60;;;2.20;99.90;;;;;;5000428;28;20492;-68
2023/01/19 00:56:26;;;;;;;15.30;12.47;;;2.30;99.90;;;;;;4995741;28;20492;-68
2023/01/19 00:58:54;;;;;;;16.60;14.20;;;2.30;99.90;;;;;;4998437;28;20472;-68
2023/01/19 01:01:24;;;;;;;15.23;13.07;;;2.30;99.90;;;;;;4997727;28;20472;-68
2023/01/19 01:04:15;;;;;;;18.03;13.90;;;2.30;99.90;;;;;;5000099;28;20653;-67
2023/01/19 01:06:46;;;;;;;17.40;13.57;;;2.30;99.90;;;;;;5001355;28;20880;-68
2023/01/19 01:09:17;;;;;;;18.13;14.30;;;2.30;99.90;;;;;;5000565;28;21524;-68
2023/01/19 01:11:45;;;;;;;16.60;13.80;;;2.30;99.90;;;;;;5001944;28;20943;-68
2023/01/19 01:14:22;;;;;;;16.43;14.70;;;2.30;99.90;;;;;;5000274;28;20953;-68
2023/01/19 01:16:55;;;;;;;15.43;13.63;;;2.40;99.90;;;;;;4999501;28;20497;-68
2023/01/19 01:19:26;;;;;;;16.63;13.97;;;2.40;99.90;;;;;;4999236;28;20473;-68
2023/01/19 01:22:05;;;;;;;15.37;13.20;;;2.40;99.90;;;;;;4996261;28;20484;-69
2023/01/19 01:24:37;;;;;;;17.93;14.10;;;2.40;99.90;;;;;;4999149;28;20952;-69
2023/01/19 01:27:10;;;;;;;16.70;13.90;;;2.40;99.90;;;;;;5003828;28;20508;-70
2023/01/19 01:29:40;;;;;;;15.13;12.97;;;2.40;99.90;;;;;;5021563;28;20475;-68
2023/01/19 01:32:13;;;;;;;16.00;14.30;;;2.40;99.90;;;;;;5019611;28;20523;-68
2023/01/19 01:34:46;;;;;;;16.33;13.93;;;2.50;99.90;;;;;;5010409;28;20571;-68
2023/01/19 01:37:34;;;;;;;20.37;14.93;;;2.40;99.90;;;;;;4997595;28;20926;-68
2023/01/19 01:40:04;;;;;;;17.57;14.43;;;2.50;99.90;;;;;;4999632;28;20468;-68
2023/01/19 01:42:39;;;;;;;17.43;14.70;;;2.50;99.90;;;;;;4992755;28;21730;-68
2023/01/19 01:45:25;;;;;;;18.07;12.50;;;2.50;99.90;;;;;;4993222;28;20488;-68
2023/01/19 01:47:58;;;;;;;15.67;13.00;;;2.50;99.90;;;;;;4999745;28;20930;-68
2023/01/19 01:50:36;;;;;;;16.80;14.00;;;2.50;99.90;;;;;;4997616;28;20481;-68
2023/01/19 01:53:13;;;;;;;15.00;13.10;;;2.50;99.90;;;;;;4996152;28;20488;-68
2023/01/19 01:55:51;;;;;;;15.17;13.13;;;2.50;99.90;;;;;;4993603;28;20501;-69
2023/01/19 01:58:23;;;;;;;18.13;13.77;;;2.50;99.90;;;;;;4995541;28;20460;-68
2023/01/19 02:03:48;;;;;;;18.27;13.63;;;2.50;99.90;;;;;;4994673;28;20594;-68
2023/01/19 02:06:20;;;;;;;15.80;12.23;;;2.50;99.90;;;;;;4998266;28;20492;-68
2023/01/19 02:14:37;;;;;;;16.40;13.60;;;2.60;99.90;;;;;;4998788;28;20472;-68
2023/01/19 02:17:07;;;;;;;16.83;12.20;;;2.60;99.90;;;;;;4996020;28;20526;-68
2023/01/19 02:19:42;;;;;;;15.13;13.50;;;2.60;99.90;;;;;;4994612;28;20831;-68
2023/01/19 02:22:23;;;;;;;18.33;14.40;;;2.60;99.90;;;;;;4997889;28;20506;-68
2023/01/19 02:24:53;;;;;;;14.40;12.90;;;2.60;99.90;;;;;;4996690;28;20889;-68
2023/01/19 02:27:30;;;;;;;16.57;13.93;;;2.60;99.90;;;;;;4998190;28;20499;-68
2023/01/19 02:30:02;;;;;;;15.73;13.50;;;2.70;99.90;;;;;;4998517;28;20457;-68
2023/01/19 02:32:31;;;;;;;14.93;13.40;;;2.60;99.90;;;;;;4996568;28;20502;-68
2023/01/19 02:35:06;;;;;;;16.07;13.17;;;2.60;99.90;;;;;;4998220;28;20946;-68
2023/01/19 02:37:41;;;;;;;17.30;13.87;;;2.60;99.90;;;;;;4993662;28;20504;-68
2023/01/19 02:40:23;;;;;;;15.87;12.50;;;2.70;99.90;;;;;;4997708;28;20487;-68
2023/01/19 02:43:01;;;;;;;15.73;13.40;;;2.70;99.90;;;;;;4997348;28;20539;-67
2023/01/19 02:45:45;;;;;;;15.07;13.17;;;2.70;99.90;;;;;;4989445;28;20471;-68
2023/01/19 02:48:31;;;;;;;13.80;12.30;;;2.70;99.90;;;;;;4996777;28;20578;-68
2023/01/19 02:51:15;;;;;;;19.20;13.60;;;2.70;99.90;;;;;;4997151;28;20571;-68
2023/01/19 02:54:33;;;;;;;16.23;12.80;;;2.70;99.90;;;;;;4996611;28;20488;-69
2023/01/19 02:57:28;;;;;;;16.90;13.60;;;2.80;99.90;;;;;;4932099;29;20606;-68
2023/01/19 03:00:19;;;;;;;17.00;13.60;;;2.80;99.90;;;;;;4990812;28;20542;-68
2023/01/19 03:03:01;;;;;;;15.70;14.10;;;2.70;99.90;;;;;;4999606;28;20480;-68
2023/01/19 03:05:36;;;;;;;17.50;13.07;;;2.70;99.90;;;;;;5000885;28;20843;-68
2023/01/19 03:08:16;;;;;;;15.30;13.60;;;2.80;99.90;;;;;;4999309;28;20521;-68
2023/01/19 03:10:53;;;;;;;15.30;13.60;;;2.80;99.90;;;;;;4994310;28;21612;-68
2023/01/19 03:13:31;;;;;;;15.83;13.53;;;2.80;99.90;;;;;;4999886;28;21034;-68
2023/01/19 03:16:05;;;;;;;17.00;14.13;;;2.80;99.90;;;;;;5000136;28;20567;-68
2023/01/19 03:18:42;;;;;;;14.93;13.27;;;2.80;99.90;;;;;;5001524;28;20554;-68
2023/01/19 03:21:12;;;;;;;18.23;14.10;;;2.80;99.90;;;;;;4999788;28;20482;-68
2023/01/19 03:23:47;;;;;;;16.03;13.43;;;2.80;99.90;;;;;;5001835;28;20559;-68
2023/01/19 03:26:20;;;;;;;18.00;14.97;;;2.70;99.90;;;;;;5000005;28;20492;-68
2023/01/19 03:28:53;;;;;;;15.90;14.00;;;2.70;99.90;;;;;;4995577;28;20607;-68
2023/01/19 03:31:25;;;;;;;16.43;13.90;;;2.70;99.90;;;;;;4997732;28;20476;-68
2023/01/19 03:34:05;;;;;;;15.83;14.23;;;2.80;99.90;;;;;;4998678;28;21244;-68
2023/01/19 03:36:39;;;;;;;17.83;14.20;;;2.80;99.90;;;;;;4999508;28;20514;-68
2023/01/19 03:39:09;;;;;;;20.23;15.33;;;2.80;99.90;;;;;;4997131;28;20494;-68
2023/01/19 03:41:41;;;;;;;16.80;14.30;;;2.80;99.90;;;;;;4996660;28;20480;-68
2023/01/19 03:44:23;;;;;;;17.70;14.03;;;2.80;99.90;;;;;;5002179;28;20468;-68
2023/01/19 03:46:56;;;;;;;14.33;12.80;;;2.80;99.90;;;;;;5000380;28;20492;-68
2023/01/19 03:49:27;;;;;;;15.87;14.27;;;2.80;99.90;;;;;;4997873;28;20552;-68
2023/01/19 03:51:58;;;;;;;15.50;13.90;;;2.80;99.90;;;;;;4999652;28;21044;-67
2023/01/19 03:54:26;;;;;;;16.07;13.77;;;2.80;99.90;;;;;;5002905;28;20473;-68
2023/01/19 03:56:56;;;;;;;14.90;13.20;;;2.80;99.90;;;;;;5000644;28;20489;-68
2023/01/19 03:59:25;;;;;;;15.53;13.93;;;2.80;99.90;;;;;;5022668;28;20613;-68
2023/01/19 04:01:57;;;;;;;16.30;14.60;;;2.80;99.90;;;;;;5021807;28;20477;-68
2023/01/19 04:04:25;;;;;;;16.17;13.37;;;2.80;99.90;;;;;;5023834;28;20460;-68
2023/01/19 04:07:02;;;;;;;16.30;13.67;;;2.80;99.90;;;;;;5021684;28;21723;-68
2023/01/19 04:09:31;;;;;;;17.20;14.80;;;2.80;99.90;;;;;;5013002;28;20485;-68
2023/01/19 04:12:00;;;;;;;15.00;13.40;;;2.80;99.90;;;;;;4999655;28;20998;-67
2023/01/19 04:14:34;;;;;;;16.03;13.00;;;2.80;99.90;;;;;;5002601;28;20473;-68
2023/01/19 04:17:01;;;;;;;15.57;13.83;;;2.80;99.90;;;;;;5000579;28;20500;-68
2023/01/19 04:19:31;;;;;;;16.97;15.17;;;2.70;99.90;;;;;;5000832;28;20981;-68
2023/01/19 04:22:06;;;;;;;16.70;14.90;;;2.70;99.90;;;;;;5000546;28;20479;-67
2023/01/19 04:24:37;;;;;;;15.57;13.97;;;2.70;99.90;;;;;;5002076;28;20471;-68
2023/01/19 04:27:07;;;;;;;18.43;15.03;;;2.70;99.90;;;;;;4999941;28;20495;-68
2023/01/19 04:29:39;;;;;;;17.30;14.50;;;2.80;99.90;;;;;;4993666;28;20503;-68
2023/01/19 04:32:10;;;;;;;17.70;15.13;;;2.80;99.90;;;;;;4998333;28;21223;-68
2023/01/19 04:34:39;;;;;;;19.23;14.77;;;2.80;99.90;;;;;;4995853;28;20477;-69
2023/01/19 04:37:12;;;;;;;17.93;14.20;;;2.80;99.90;;;;;;5000196;28;20499;-68
2023/01/19 04:39:50;;;;;;;18.37;15.00;;;2.80;99.90;;;;;;4994282;28;20949;-68
2023/01/19 04:42:19;;;;;;;17.70;15.10;;;2.80;99.90;;;;;;4993895;28;20492;-69
2023/01/19 04:44:51;;;;;;;19.57;15.33;;;2.80;99.90;;;;;;4996373;28;21395;-69
2023/01/19 04:47:25;;;;;;;20.13;15.30;;;2.70;99.90;;;;;;5002070;28;20503;-68
2023/01/19 04:49:56;;;;;;;17.80;15.63;;;2.80;99.90;;;;;;4998050;28;20565;-68
2023/01/19 04:52:25;;;;;;;18.40;16.50;;;2.80;99.90;;;;;;4998341;28;21050;-67
2023/01/19 04:55:02;;;;;;;17.43;15.00;;;2.80;99.90;;;;;;4999001;28;20489;-68
2023/01/19 04:57:36;;;;;;;18.03;15.47;;;2.80;99.90;;;;;;4998954;28;20488;-68
2023/01/19 05:00:17;;;;;;;18.00;15.40;;;2.80;99.90;;;;;;4997457;28;20504;-68
2023/01/19 05:02:50;;;;;;;18.57;15.90;;;2.80;99.90;;;;;;4995467;28;20496;-68
2023/01/19 05:05:18;;;;;;;16.87;15.07;;;2.80;99.90;;;;;;4997912;28;20504;-68
2023/01/19 05:07:46;;;;;;;19.67;16.10;;;2.80;99.90;;;;;;5000045;28;20500;-68
2023/01/19 05:10:16;;;;;;;21.03;16.80;;;2.80;99.90;;;;;;4999233;28;21355;-68
2023/01/19 05:12:50;;;;;;;19.97;17.10;;;2.90;99.90;;;;;;4997545;28;20837;-68
2023/01/19 05:15:23;;;;;;;20.30;15.77;;;2.80;99.90;;;;;;4999358;28;20495;-68
2023/01/19 05:17:52;;;;;;;18.77;15.60;;;2.80;99.90;;;;;;5000460;28;20548;-68
2023/01/19 05:20:35;;;;;;;19.23;15.60;;;2.90;99.90;;;;;;4998454;28;20847;-68
2023/01/19 05:23:15;;;;;;;20.10;15.70;;;2.90;99.90;;;;;;4998314;28;20489;-68
2023/01/19 05:25:44;;;;;;;17.27;15.30;;;2.90;99.90;;;;;;4996608;28;20468;-68
2023/01/19 05:28:26;;;;;;;;;;;;;;;;;;;;;
2023/01/19 05:30:56;;;;;;;16.57;14.63;;;2.90;99.90;;;;;;4992571;28;20492;-68
2023/01/19 05:33:28;;;;;;;19.90;16.53;;;2.90;99.90;;;;;;4991160;28;20492;-68
2023/01/19 05:35:56;;;;;;;21.43;16.30;;;2.90;99.90;;;;;;4993794;28;20508;-68
2023/01/19 05:38:39;;;;;;;19.87;15.50;;;2.90;99.90;;;;;;4991676;28;20476;-68
2023/01/19 05:41:07;;;;;;;18.13;15.83;;;2.90;99.90;;;;;;4994253;28;20676;-68
2023/01/19 05:43:35;;;;;;;21.73;16.87;;;2.80;99.90;;;;;;4983873;28;20497;-68
2023/01/19 05:46:09;;;;;;;18.80;15.80;;;2.80;99.90;;;;;;4987642;28;20496;-68
2023/01/19 05:48:43;;;;;;;19.60;16.13;;;2.80;99.90;;;;;;4997738;28;20465;-68
2023/01/19 05:51:11;;;;;;;21.70;16.80;;;2.80;99.90;;;;;;4997479;28;20488;-68
2023/01/19 05:53:42;;;;;;;20.23;16.77;;;2.80;99.90;;;;;;4992012;28;20488;-68
2023/01/19 05:56:12;;;;;;;21.70;17.83;;;2.80;99.90;;;;;;4991564;28;20655;-68
2023/01/19 05:58:42;;;;;;;19.77;16.80;;;2.80;99.90;;;;;;4992733;28;20762;-68
2023/01/19 06:01:14;;;;;;;19.63;17.30;;;2.80;99.90;;;;;;4987322;28;20476;-68
2023/01/19 06:03:43;;;;;;;18.73;16.40;;;2.80;99.90;;;;;;4995845;28;20484;-67
2023/01/19 06:06:14;;;;;;;19.20;17.00;;;2.80;99.90;;;;;;4994401;28;20567;-68
2023/01/19 06:08:48;;;;;;;20.27;17.60;;;2.80;99.90;;;;;;4997140;28;20501;-68
2023/01/19 06:11:16;;;;;;;23.47;17.47;;;2.90;99.90;;;;;;4996376;28;21165;-68
2023/01/19 06:13:45;;;;;;;20.30;17.67;;;2.80;99.90;;;;;;4993566;28;20491;-68
2023/01/19 06:16:17;;;;;;;20.90;17.23;;;2.80;99.90;;;;;;4991338;28;20539;-68
2023/01/19 06:18:47;;;;;;;21.23;18.30;;;2.80;99.90;;;;;;4994277;28;20518;-69
2023/01/19 06:21:18;;;;;;;20.80;17.37;;;2.90;99.90;;;;;;4995993;28;21054;-68
2023/01/19 06:23:49;;;;;;;20.97;17.20;;;2.80;99.90;;;;;;4983024;28;20979;-68
2023/01/19 06:26:17;;;;;;;21.67;16.90;;;2.80;99.90;;;;;;4987285;28;20611;-68
2023/01/19 06:28:47;;;;;;;22.83;17.40;;;2.80;99.90;;;;;;4993671;28;20487;-68
2023/01/19 06:31:20;;;;;;;20.17;16.47;;;2.80;99.90;;;;;;4994205;28;20488;-68
2023/01/19 06:33:52;;;;;;;20.30;16.20;;;2.80;99.90;;;;;;4995533;28;20495;-68
2023/01/19 06:36:20;;;;;;;24.07;17.67;;;2.80;99.90;;;;;;4999908;28;21040;-69
2023/01/19 06:38:48;;;;;;;21.53;16.87;;;2.80;99.90;;;;;;5000799;28;20492;-68
2023/01/19 06:41:29;;;;;;;19.67;16.20;;;2.80;99.90;;;;;;4994732;28;20468;-68
2023/01/19 06:44:04;;;;;;;18.50;16.50;;;2.80;99.90;;;;;;4996598;28;21234;-68
2023/01/19 06:46:41;;;;;;;21.00;16.80;;;2.80;99.90;;;;;;5003501;28;20630;-68
2023/01/19 06:49:10;;;;;;;18.90;16.20;;;2.80;99.90;;;;;;4999480;28;20482;-68
2023/01/19 06:51:38;;;;;;;18.70;15.63;;;2.80;99.90;;;;;;4995761;28;20499;-67
2023/01/19 06:54:11;;;;;;;16.60;14.87;;;2.80;99.90;;;;;;5000769;28;20476;-68
2023/01/19 06:56:43;;;;;;;19.67;15.50;;;2.80;99.90;;;;;;4999522;28;20488;-72
2023/01/19 06:59:11;;;;;;;18.47;15.17;;;2.80;99.90;;;;;;4995014;28;20472;-69
2023/01/19 07:01:41;;;;;;;20.07;16.33;;;2.80;99.90;;;;;;4993172;28;20472;-68
2023/01/19 07:04:12;;;;;;;20.83;17.07;;;2.80;99.90;;;;;;4997388;28;20476;-68
2023/01/19 07:06:42;;;;;;;18.07;14.60;;;2.80;99.90;;;;;;5002719;28;20877;-68
2023/01/19 07:09:12;;;;;;;18.13;14.90;;;2.80;99.90;;;;;;4998940;28;20568;-68
2023/01/19 07:11:53;;;;;;;;;;;;;;;;;;;;;
2023/01/19 07:14:21;;;;;;;19.00;15.77;;;2.80;99.90;;;;;;5000980;28;20465;-68
2023/01/19 07:16:54;;;;;;;18.20;16.13;;;2.80;99.90;;;;;;4997036;28;20550;-68
2023/01/19 07:19:26;;;;;;;19.23;16.20;;;2.90;99.90;;;;;;5002464;28;20479;-69
2023/01/19 07:21:57;;;;;;;17.43;15.37;;;2.80;99.90;;;;;;4994227;28;20488;-66
2023/01/19 07:24:25;;;;;;;21.07;16.83;;;2.80;99.90;;;;;;4997330;28;21030;-69
2023/01/19 07:26:56;;;;;;;19.80;17.03;;;2.90;99.90;;;;;;5017721;28;20490;-69
2023/01/19 07:29:29;;;;;;;18.40;16.13;;;2.90;99.90;;;;;;5013000;28;20529;-68
2023/01/19 07:31:58;;;;;;;19.27;17.13;;;2.90;99.90;;;;;;5016326;28;20488;-69
2023/01/19 07:34:30;;;;;;;19.03;17.03;;;2.90;99.90;;;;;;5010076;28;20483;-69
2023/01/19 07:37:01;;;;;;;23.10;16.87;;;2.90;99.90;;;;;;4998708;28;20505;-68
2023/01/19 07:39:40;;;;;;;20.00;16.67;;;2.90;99.90;;;;;;4992500;28;20475;-68
2023/01/19 07:42:11;;;;;;;20.73;16.30;;;2.90;99.90;;;;;;4995763;28;20491;-69
2023/01/19 07:44:39;;;;;;;23.20;17.50;;;2.90;99.90;;;;;;4991812;28;20479;-68
2023/01/19 07:47:13;;;;;;;22.37;18.47;;;2.90;99.90;;;;;;4993966;28;20495;-69
2023/01/19 07:49:41;;;;;;;24.93;18.80;;;2.90;99.90;;;;;;4995426;28;21079;-69
2023/01/19 07:52:16;;;;;;;24.33;17.80;;;2.90;99.90;;;;;;4992549;28;21044;-68
2023/01/19 07:55:01;;;;;;;22.20;17.57;;;2.90;99.90;;;;;;4997565;28;20465;-69
2023/01/19 07:57:30;;;;;;;22.60;18.27;;;2.90;99.90;;;;;;5002242;28;20555;-68
2023/01/19 07:59:58;;;;;;;21.60;17.90;;;2.80;99.90;;;;;;4993511;28;20579;-68
2023/01/19 08:02:34;;;;;;;21.30;17.00;;;2.90;99.90;;;;;;5000100;28;20502;-69
2023/01/19 08:05:04;;;;;;;22.30;17.40;;;2.90;99.90;;;;;;4998350;28;20476;-69
2023/01/19 08:07:36;;;;;;;23.97;18.40;;;2.90;99.90;;;;;;4995795;28;20515;-68
2023/01/19 08:10:07;;;;;;;23.17;18.80;;;2.90;99.90;;;;;;4989889;28;20473;-75
2023/01/19 08:12:40;;;;;;;20.67;17.27;;;2.90;99.90;;;;;;4999545;28;20481;-73
2023/01/19 08:15:09;;;;;;;23.00;18.07;;;2.90;99.90;;;;;;4995640;28;20846;-73
2023/01/19 08:17:42;;;;;;;23.30;17.60;;;2.90;99.90;;;;;;4994306;28;20890;-73
2023/01/19 08:20:16;;;;;;;23.40;18.87;;;3.00;99.90;;;;;;4995786;28;20464;-72
2023/01/19 08:22:47;;;;;;;23.23;16.77;;;3.00;99.90;;;;;;4998896;28;20540;-73
2023/01/19 08:25:15;;;;;;;21.00;16.60;;;3.00;99.90;;;;;;4998609;28;20473;-72
2023/01/19 08:27:50;;;;;;;21.67;16.10;;;3.00;99.90;;;;;;4996534;28;20507;-72
2023/01/19 08:30:26;;;;;;;22.20;17.33;;;3.00;99.90;;;;;;4996127;28;20471;-67
2023/01/19 08:33:04;;;;;;;21.63;16.50;;;3.00;99.90;;;;;;4981793;28;20857;-68
2023/01/19 08:35:36;;;;;;;21.67;16.70;;;3.00;99.90;;;;;;4977051;28;20469;-67
2023/01/19 08:38:07;;;;;;;20.93;16.23;;;3.00;99.90;;;;;;4976498;28;20470;-67
2023/01/19 08:40:39;;;;;;;21.40;16.20;;;3.10;99.90;;;;;;4977628;28;20477;-67
2023/01/19 08:43:13;;;;;;;22.30;16.93;;;3.10;99.90;;;;;;4987921;28;20500;-67
2023/01/19 08:45:55;;;;;;;17.10;15.10;;;3.00;99.90;;;;;;4996923;28;20552;-68
2023/01/19 08:48:24;;;;;;;18.93;15.77;;;3.10;99.90;;;;;;4998389;28;20472;-67
2023/01/19 08:50:59;;;;;;;20.67;16.17;;;3.20;99.90;;;;;;4997928;28;21034;-67
2023/01/19 08:53:33;;;;;;;19.70;16.07;;;3.20;99.90;;;;;;4980837;28;20484;-66
2023/01/19 08:56:03;;;;;;;19.27;15.40;;;3.20;99.90;;;;;;4975490;28;20515;-67
2023/01/19 08:58:36;;;;;;;19.10;15.57;;;3.20;99.90;;;;;;4974282;28;20478;-66
2023/01/19 09:01:17;;;;;;;19.23;15.77;;;3.30;99.90;;;;;;4979235;28;20553;-67
2023/01/19 09:03:58;;;;;;;19.40;15.93;;;3.30;99.90;;;;;;4974976;28;20591;-66
2023/01/19 09:06:28;;;;;;;20.50;16.30;;;3.30;99.90;;;;;;4978168;28;21022;-67
2023/01/19 09:08:56;;;;;;;19.37;14.70;;;3.30;99.90;;;;;;4977705;28;20497;-67
2023/01/19 09:11:29;;;;;;;20.93;16.07;;;3.40;99.90;;;;;;4978355;28;21023;-66
2023/01/19 09:13:59;;;;;;;19.30;15.57;;;3.40;99.90;;;;;;4996601;28;20504;-66
2023/01/19 09:16:28;;;;;;;20.07;15.80;;;3.40;99.90;;;;;;4997359;28;20514;-67
2023/01/19 09:19:01;;;;;;;18.37;15.27;;;3.40;99.90;;;;;;4996911;28;20473;-66
2023/01/19 09:21:30;;;;;;;19.30;15.90;;;3.40;99.90;;;;;;4998726;28;20465;-66
2023/01/19 09:23:59;;;;;;;16.43;14.43;;;3.40;99.90;;;;;;4976543;28;20521;-66
2023/01/19 09:26:27;;;;;;;19.40;16.20;;;3.40;99.90;;;;;;4979881;28;20498;-66
2023/01/19 09:28:55;;;;;;;18.80;15.73;;;3.40;99.90;;;;;;4978223;28;20569;-67
2023/01/19 09:31:23;;;;;;;20.27;15.90;;;3.30;99.90;;;;;;4978051;28;20474;-67
2023/01/19 09:33:51;;;;;;;20.20;16.37;;;3.30;99.90;;;;;;4996140;28;20507;-68
2023/01/19 09:36:31;;;;;;;20.17;17.00;;;3.30;99.90;;;;;;5000019;28;21020;-67
2023/01/19 09:39:04;;;;;;;21.07;16.50;;;3.30;99.90;;;;;;5001070;28;21064;-67
2023/01/19 09:41:37;;;;;;;21.67;17.43;;;3.30;99.90;;;;;;5009050;28;20500;-66
2023/01/19 09:44:12;;;;;;;18.50;15.70;;;3.30;99.90;;;;;;4989420;28;20487;-66
2023/01/19 09:46:41;;;;;;;20.93;17.23;;;3.30;99.90;;;;;;4991977;28;20500;-66
2023/01/19 09:49:16;;;;;;;21.80;17.57;;;3.30;99.90;;;;;;4991848;28;20473;-67
2023/01/19 09:51:50;;;;;;;20.60;16.20;;;3.40;99.90;;;;;;4991348;28;20493;-66
2023/01/19 09:54:21;;;;;;;21.03;16.40;;;3.40;99.90;;;;;;4986186;28;20561;-67
2023/01/19 09:56:49;;;;;;;22.43;16.97;;;3.40;99.90;;;;;;4976429;28;20494;-66
2023/01/19 09:59:24;;;;;;;18.40;15.57;;;3.50;99.90;;;;;;4976081;28;20536;-66
2023/01/19 10:02:21;;;;;;;20.73;16.37;;;3.50;99.90;;;;;;4975841;28;20576;-66
2023/01/19 10:05:00;;;;;;;20.60;16.90;;;3.60;99.90;;;;;;4975692;28;20477;-66
2023/01/19 10:07:52;;;;;;;19.07;16.40;;;3.60;99.90;;;;;;4977981;28;20987;-66
2023/01/19 10:10:24;;;;;;;17.53;15.30;;;3.60;99.90;;;;;;4975362;28;20474;-66
2023/01/19 10:13:09;;;;;;;19.63;15.67;;;3.60;99.90;;;;;;4970981;28;20495;-66
2023/01/19 10:15:45;;;;;;;18.93;15.80;;;3.60;99.90;;;;;;4973870;28;20485;-66
2023/01/19 10:18:18;;;;;;;16.40;14.57;;;3.60;99.90;;;;;;4974315;28;21223;-66
2023/01/19 10:20:57;;;;;;;16.97;14.57;;;3.60;99.90;;;;;;4972163;28;20599;-66
2023/01/19 10:23:39;;;;;;;16.70;14.90;;;3.60;99.90;;;;;;4971440;28;20485;-66
2023/01/19 10:26:15;;;;;;;18.60;14.30;;;3.60;99.90;;;;;;4975938;28;20497;-67
2023/01/19 10:28:45;;;;;;;18.07;14.57;;;3.60;99.90;;;;;;4975078;28;20469;-66
2023/01/19 10:31:25;;;;;;;18.90;15.70;;;3.60;99.90;;;;;;4974889;28;20525;-66
2023/01/19 10:33:58;;;;;;;18.40;14.63;;;3.70;99.90;;;;;;4997438;28;20493;-66
2023/01/19 10:36:37;;;;;;;17.47;14.10;;;3.80;99.90;;;;;;4999181;28;20492;-66
2023/01/19 10:39:16;;;;;;;16.27;13.50;;;3.80;99.90;;;;;;4996251;28;20470;-66
2023/01/19 10:41:52;;;;;;;20.37;14.33;;;3.80;99.90;;;;;;4993675;28;20468;-66
2023/01/19 10:44:36;;;;;;;18.00;15.07;;;3.80;99.90;;;;;;4992183;28;20472;-66
2023/01/19 10:47:16;;;;;;;17.83;14.13;;;3.80;99.90;;;;;;4997546;28;20582;-66
2023/01/19 10:49:45;;;;;;;17.63;14.03;;;3.80;99.90;;;;;;4994015;28;20524;-66
2023/01/19 10:52:29;;;;;;;17.20;15.33;;;3.70;99.90;;;;;;4995308;28;20493;-66
2023/01/19 10:55:09;;;;;;;17.70;14.90;;;3.70;99.90;;;;;;4997412;28;20477;-66
2023/01/19 10:57:42;;;;;;;17.53;14.10;;;3.70;99.90;;;;;;4997473;28;20492;-66
2023/01/19 11:00:31;;;;;;;17.33;14.63;;;3.60;99.90;;;;;;4995120;28;20483;-66
2023/01/19 11:03:01;;;;;;;18.50;15.03;;;3.70;99.90;;;;;;4996417;28;20546;-66
2023/01/19 11:05:34;;;;;;;18.17;15.33;;;3.70;99.90;;;;;;4998745;28;20497;-65
2023/01/19 11:08:25;;;;;;;16.13;14.30;;;3.70;99.90;;;;;;4996854;28;22240;-65
2023/01/19 11:11:01;;;;;;;17.73;15.00;;;3.70;99.90;;;;;;4997879;28;21488;-65
2023/01/19 11:13:43;;;;;;;16.60;14.13;;;3.70;99.90;;;;;;4997179;28;20488;-66
2023/01/19 11:16:22;;;;;;;16.80;13.90;;;3.70;99.90;;;;;;4997369;28;20485;-66
2023/01/19 11:18:54;;;;;;;17.30;15.40;;;3.70;99.90;;;;;;4997988;28;20472;-66
2023/01/19 11:21:26;;;;;;;17.37;14.97;;;3.70;99.90;;;;;;4997273;28;20991;-66
2023/01/19 11:23:58;;;;;;;17.20;14.97;;;3.70;99.90;;;;;;4999127;28;20572;-66
2023/01/19 11:26:46;;;;;;;17.03;14.40;;;3.70;99.90;;;;;;5002822;28;20493;-66
2023/01/19 11:29:20;;;;;;;18.00;15.20;;;3.70;99.90;;;;;;5002030;28;20469;-66
2023/01/19 11:31:49;;;;;;;18.00;15.20;;;3.70;99.90;;;;;;4997826;28;20511;-66
2023/01/19 11:34:33;;;;;;;16.30;13.70;;;3.70;99.90;;;;;;4998384;28;20988;-66
2023/01/19 11:37:08;;;;;;;17.23;14.50;;;3.70;99.90;;;;;;5001466;28;20504;-66
2023/01/19 11:39:47;;;;;;;18.77;15.13;;;3.70;99.90;;;;;;4996560;28;20472;-66
2023/01/19 11:42:25;;;;;;;19.93;15.70;;;3.80;99.90;;;;;;4999575;28;20558;-65
2023/01/19 11:45:02;;;;;;;19.20;14.90;;;3.80;99.90;;;;;;4999418;28;20530;-66
2023/01/19 11:47:35;;;;;;;15.87;13.30;;;3.80;99.90;;;;;;4997879;28;20484;-66
2023/01/19 18:10:00;;;;;;;5.33;3.67;;;3.30;99.90;;;;;;4994586;28;20741;-64
2023/01/19 18:12:30;;;;;;;6.17;3.80;;;3.30;99.90;;;;;;5585930;22;20504;-71
2023/01/19 18:14:58;;;;;;;5.40;3.43;;;3.30;99.90;;;;;;5087466;27;21245;-71
2023/01/19 18:17:26;;;;;;;5.03;3.70;;;3.30;99.90;;;;;;5090396;27;20468;-70
2023/01/19 18:19:54;;;;;;;8.00;3.63;;;3.20;99.90;;;;;;5096323;28;20502;-69
2023/01/19 18:22:22;;;;;;;5.43;3.00;;;3.20;99.90;;;;;;5100622;27;20494;-70
2023/01/19 18:24:49;;;;;;;6.00;3.67;;;3.20;99.90;;;;;;5117373;27;20455;-70
2023/01/19 18:27:20;;;;;;;4.13;3.00;;;3.20;99.90;;;;;;5122158;27;20498;-70
2023/01/19 18:29:48;;;;;;;4.10;3.43;;;3.20;99.90;;;;;;5114134;27;20974;-70
2023/01/19 18:32:16;;;;;;;6.07;2.80;;;3.20;99.90;;;;;;5118743;27;20481;-69
2023/01/19 18:34:44;;;;;;;7.33;3.60;;;3.10;99.90;;;;;;5122788;27;20584;-70
2023/01/19 18:37:12;;;;;;;3.63;2.80;;;3.10;99.90;;;;;;5123614;27;20471;-69
2023/01/19 18:39:40;;;;;;;5.53;2.73;;;3.10;99.90;;;;;;5122156;27;20485;-69
2023/01/19 18:42:08;;;;;;;5.47;2.90;;;3.10;99.90;;;;;;5118421;27;20490;-69
2023/01/19 18:44:38;;;;;;;4.07;2.67;;;3.10;99.90;;;;;;5115405;27;20505;-70
2023/01/19 18:47:06;;;;;;;7.73;2.70;;;3.10;99.90;;;;;;5119399;27;20471;-70
2023/01/19 18:49:34;;;;;;;5.53;2.90;;;3.10;99.90;;;;;;5122257;27;20466;-70
2023/01/19 18:52:02;;;;;;;4.70;2.33;;;3.10;99.90;;;;;;5115673;27;20497;-70
2023/01/19 18:54:32;;;;;;;6.80;2.40;;;3.10;99.90;;;;;;5117095;27;20518;-71
2023/01/19 18:57:00;;;;;;;4.50;2.70;;;3.00;99.90;;;;;;5118706;27;20949;-70
2023/01/19 18:59:28;;;;;;;7.83;2.63;;;3.00;99.90;;;;;;5117292;27;20985;-70
2023/01/19 19:02:00;;;;;;;4.67;2.53;;;3.10;99.90;;;;;;5116434;27;20561;-71
2023/01/19 19:04:28;;;;;;;5.03;2.33;;;3.00;99.90;;;;;;5118530;27;20808;-71
2023/01/19 19:06:56;;;;;;;6.20;2.60;;;3.00;99.90;;;;;;5119289;27;20470;-70
2023/01/19 19:09:24;;;;;;;3.67;2.30;;;3.00;99.90;;;;;;5114623;27;20481;-70
2023/01/19 19:11:52;;;;;;;4.17;2.43;;;3.00;99.90;;;;;;5122380;27;20474;-70
2023/01/19 19:14:19;;;;;;;4.90;2.47;;;3.00;99.90;;;;;;5120552;27;20486;-71
2023/01/19 19:16:47;;;;;;;4.90;2.40;;;3.00;99.90;;;;;;5124226;27;21215;-71
2023/01/19 19:19:17;;;;;;;3.27;2.70;;;3.00;99.90;;;;;;5135790;27;20481;-70
2023/01/19 19:21:45;;;;;;;4.40;2.07;;;2.90;99.90;;;;;;5125940;27;20785;-69
2023/01/19 19:24:13;;;;;;;4.03;2.10;;;2.90;99.90;;;;;;5131397;27;20495;-69
2023/01/19 19:26:41;;;;;;;3.03;2.03;;;2.90;99.90;;;;;;5130327;27;20473;-69
2023/01/19 19:29:10;;;;;;;4.37;2.20;;;2.90;99.90;;;;;;5134060;27;20480;-71
2023/01/19 19:31:38;;;;;;;4.70;2.63;;;2.90;99.90;;;;;;5128076;27;20466;-72
2023/01/19 19:34:07;;;;;;;4.00;2.40;;;2.90;99.90;;;;;;5136470;27;20490;-72
2023/01/19 19:36:37;;;;;;;4.57;2.63;;;2.90;99.90;;;;;;5134686;27;20454;-70
2023/01/19 19:39:05;;;;;;;6.07;2.60;;;2.90;99.90;;;;;;5139526;27;20453;-71